Data for 11/09/2007

Time Sea-Level Adjusted Pressure Absolute Pressure Temperature Relative Humidity Dew Point   
(mb) (inHg) (mb) (inHg) (C) (F) (%) (C) (F)
00:05 1018 30.06 847 25.01 8.7 47.7 38 -4.9 23.2
00:10 1018 30.06 847 25.01 8.9 48 36 -5.4 22.3
00:15 1018 30.06 847 25.01 9.2 48.5 36 -5 23.1
00:20 1018 30.06 847 25.01 8.9 48 37 -4.9 23.2
00:25 1018 30.06 847 25.01 8.7 47.7 38 -4.8 23.3
00:30 1018 30.06 847 25.01 8.5 47.3 40 -4.4 24
00:35 1018 30.06 847 25.01 8.1 46.5 41 -4.5 24
00:40 1018 30.06 847 25.01 7.9 46.2 41 -4.6 23.7
00:45 1018 30.06 847 25.01 7.6 45.8 43 -4.1 24.6
00:50 1018 30.06 847 25.01 7.1 44.7 43 -4.5 23.9
00:55 1018 30.06 847 25.01 7.1 44.8 42 -5 23
01:00 1018 30.06 847 25.01 7.4 45.3 42 -4.6 23.8
01:05 1018 30.06 847 25.01 7.2 44.9 44 -4.2 24.4
01:10 1018 30.06 847 25.01 6.8 44.2 45 -4.4 24.2
01:15 1018 30.06 847 25.01 6.7 44.1 46 -4.2 24.5
01:20 1018 30.06 847 25.01 6.4 43.6 47 -4.1 24.7
01:25 1018 30.06 847 25.01 6.3 43.3 47 -4.2 24.4
01:30 1018 30.06 847 25.01 6.4 43.5 47 -4.1 24.5
01:35 1018 30.06 847 25.01 6.4 43.6 47 -4 24.8
01:40 1018 30.06 847 25.01 6.5 43.7 47 -4 24.8
01:45 1018 30.06 847 25.01 6.5 43.7 48 -3.8 25.2
01:50 1018 30.06 847 25.01 6.6 43.8 48 -3.7 25.3
01:55 1018 30.06 847 25.01 6.6 43.8 48 -3.7 25.4
02:00 1018 30.06 847 25.01 6.5 43.7 49 -3.5 25.8
02:05 1018 30.06 847 25.01 6.4 43.5 49 -3.5 25.8
02:10 1018 30.06 847 25.01 6.5 43.7 50 -3.3 26
02:15 1018 30.06 847 25.01 6.3 43.3 50 -3.3 26
02:20 1018 30.06 847 25.01 6.1 43 51 -3.3 26
02:25 1018 30.06 847 25.01 5.9 42.6 52 -3.2 26.2
02:30 1018 30.06 847 25.01 5.6 42.1 53 -3.2 26.2
02:35 1018 30.06 847 25.01 5.5 41.8 53 -3.4 25.9
02:40 1018 30.06 847 25.01 5.7 42.3 52 -3.5 25.7
02:45 1018 30.06 847 25.01 6 42.8 51 -3.4 25.9
02:50 1018 30.06 847 25.01 6.3 43.3 51 -3.2 26.2
02:55 1018 30.06 847 25.01 6.3 43.3 52 -2.9 26.7
03:00 1018 30.06 847 25.01 6.2 43.2 52 -2.9 26.8
03:05 1018 30.06 847 25.01 6.3 43.3 53 -2.6 27.4
03:10 1018 30.06 847 25.01 6.5 43.6 53 -2.5 27.5
03:15 1018 30.06 847 25.01 6.5 43.7 53 -2.4 27.8
03:20 1018 30.06 847 25.01 5.9 42.6 55 -2.5 27.4
03:25 1018 30.06 847 25.01 5.6 42 55 -2.9 26.8
03:30 1017 30.03 847 25.01 5.6 42 56 -2.5 27.4
03:35 1018 30.06 847 25.01 5.5 41.9 57 -2.3 27.9
03:40 1018 30.06 847 25.01 5.7 42.2 57 -2.1 28.3
03:45 1017 30.03 847 25.01 6 42.8 56 -2 28.4
03:50 1017 30.03 847 25.01 6.1 42.9 57 -1.7 28.9
03:55 1017 30.03 847 25.01 6.1 43 57 -1.8 28.7
04:00 1017 30.03 846 24.98 6.4 43.5 56 -1.7 28.9
04:05 1017 30.03 846 24.98 6.7 44 55 -1.7 29
04:10 1017 30.03 846 24.98 6.7 44.1 56 -1.5 29.3
04:15 1017 30.03 846 24.98 6.5 43.6 57 -1.4 29.4
04:20 1017 30.03 846 24.98 6.1 43 57 -1.7 29
04:25 1017 30.03 846 24.98 6.4 43.5 56 -1.7 29
04:30 1017 30.03 846 24.98 6.3 43.4 59 -1.1 30.1
04:35 1017 30.03 846 24.98 5.9 42.7 59 -1.4 29.4
04:40 1017 30.03 846 24.98 6.1 42.9 58 -1.6 29.2
04:45 1017 30.03 846 24.98 6.2 43.2 57 -1.7 28.9
04:50 1017 30.03 846 24.98 6.3 43.3 55 -2.1 28.2
04:55 1017 30.03 846 24.98 6.4 43.6 55 -2 28.3
05:00 1017 30.03 846 24.98 6.4 43.6 55 -1.9 28.6
05:05 1017 30.03 846 24.98 6.3 43.4 53 -2.5 27.6
05:10 1017 30.03 846 24.98 6.4 43.5 54 -2.3 27.9
05:15 1017 30.03 846 24.98 6.5 43.8 51 -2.8 27
05:20 1017 30.03 846 24.98 6.6 43.8 52 -2.6 27.4
05:25 1017 30.03 846 24.98 6.5 43.7 54 -2.2 28
05:30 1017 30.03 846 24.98 6.3 43.3 56 -1.8 28.8
05:35 1017 30.03 846 24.98 6 42.8 55 -2.3 27.8
05:40 1017 30.03 846 24.98 6.1 43 57 -1.9 28.6
05:45 1017 30.03 846 24.98 5.9 42.6 57 -1.9 28.6
05:50 1017 30.03 846 24.98 5.7 42.3 59 -1.7 28.9
05:55 1017 30.03 846 24.98 5.7 42.3 59 -1.7 29
06:00 1017 30.03 846 24.98 5.6 42.2 60 -1.6 29.2
06:05 1017 30.03 846 24.98 5.7 42.2 59 -1.6 29.1
06:10 1017 30.03 846 24.98 5.6 42 60 -1.5 29.2
06:15 1017 30.03 846 24.98 5.4 41.7 60 -1.7 29
06:20 1017 30.03 846 24.98 5.3 41.6 60 -1.9 28.6
06:25 1017 30.03 846 24.98 5.3 41.6 60 -1.8 28.8
06:30 1017 30.03 846 24.98 5.1 41.3 61 -1.8 28.8
06:35 1016 30 846 24.98 5 41.1 61 -1.9 28.5
06:40 1016 30 846 24.98 5.1 41.3 60 -2.1 28.3
06:45 1016 30 845 24.95 5.2 41.4 59 -2 28.3
06:50 1016 30 845 24.95 5.3 41.6 58 -2.2 28.1
06:55 1016 30 845 24.95 5.5 42 58 -1.9 28.5
07:00 1016 30 845 24.95 5.6 42 59 -1.8 28.8
07:05 1016 30 845 24.95 5.5 42 58 -2.2 28.1
07:10 1016 30 845 24.95 5.6 42 58 -2 28.5
07:15 1016 30 845 24.95 5.4 41.8 58 -2.2 28
07:20 1016 30 845 24.95 5.6 42.1 57 -2.3 27.8
07:25 1016 30 845 24.95 5.8 42.5 55 -2.5 27.4
07:30 1016 30 846 24.98 6.3 43.3 53 -2.6 27.4
07:35 1016 30 846 24.98 6.5 43.6 53 -2.5 27.6
07:40 1017 30.03 846 24.98 6.5 43.7 53 -2.3 27.8
07:45 1017 30.03 846 24.98 6.4 43.6 54 -2.2 28
07:50 1016 30 846 24.98 6.4 43.5 54 -2.3 27.9
07:55 1016 30 846 24.98 6.3 43.4 55 -2.1 28.2
08:00 1016 30 845 24.95 6.3 43.3 55 -2.2 28.1
08:05 1016 30 845 24.95 6.4 43.5 53 -2.4 27.7
08:10 1016 30 846 24.98 6.5 43.8 53 -2.4 27.7
08:15 1016 30 845 24.95 6.7 44.1 52 -2.3 27.9
08:20 1016 30 845 24.95 7 44.7 51 -2.3 27.9
08:25 1016 30 845 24.95 7.2 44.9 52 -2.1 28.3
08:30 1016 30 845 24.95 7 44.6 50 -2.6 27.4
08:35 1016 30 845 24.95 7.3 45.1 49 -2.8 26.9
08:40 1016 30 845 24.95 7.6 45.6 46 -3.2 26.2
08:45 1016 30 845 24.95 8 46.4 45 -3.3 26
08:50 1016 30 845 24.95 8.4 47.1 43 -3.4 25.9
08:55 1016 30 845 24.95 8.5 47.4 43 -3.3 26.1
09:00 1016 30 845 24.95 8.8 47.9 43 -3.1 26.5
09:05 1016 30 845 24.95 9.2 48.5 41 -3.2 26.2
09:10 1016 30 846 24.98 9.6 49.4 40 -3.4 25.8
09:15 1016 30 846 24.98 9.9 49.9 39 -3.3 26.1
09:20 1016 30 846 24.98 10.2 50.4 42 -1.9 28.5
09:25 1016 30 846 24.98 9.6 49.3 47 -1 30.2
09:30 1016 30 846 24.98 9.2 48.5 46 -1.9 28.6
09:35 1016 30 846 24.98 9.5 49 45 -1.9 28.6
09:40 1016 30 845 24.95 8.6 47.5 49 -1.6 29.1
09:45 1016 30 846 24.98 8.6 47.4 51 -1 30.3
09:50 1016 30 846 24.98 8.3 46.9 52 -1 30.1
09:55 1016 30 846 24.98 8.5 47.3 49 -1.6 29.2
10:00 1016 30 846 24.98 8.6 47.5 50 -1.1 30
10:05 1016 30 846 24.98 8.5 47.3 50 -1.4 29.4
10:10 1016 30 846 24.98 8.6 47.5 48 -1.6 29.1
10:15 1016 30 846 24.98 8.7 47.7 48 -1.6 29.2
10:20 1016 30 846 24.98 9.1 48.5 46 -1.9 28.5
10:25 1016 30 846 24.98 9.9 49.9 43 -1.9 28.6
10:30 1016 30 846 24.98 10 49.9 46 -1.2 29.8
10:35 1016 30 845 24.95 10 49.9 44 -1.6 29.2
10:40 1016 30 845 24.95 10.1 50.1 42 -2.3 27.9
10:45 1016 30 845 24.95 10.6 51 39 -2.7 27.2
10:50 1016 30 845 24.95 10.7 51.3 39 -2.5 27.5
10:55 1016 30 845 24.95 11.1 52.1 36 -3.4 25.8
11:00 1016 30 845 24.95 11.9 53.3 33 -4 24.8
11:05 1016 30 845 24.95 12.1 53.7 34 -3.3 26.1
11:10 1016 30 845 24.95 11.9 53.4 33 -3.7 25.3
11:15 1016 30 845 24.95 12.3 54.1 32 -3.8 25.2
11:20 1016 30 845 24.95 13.1 55.5 30 -4.2 24.5
11:25 1016 30 845 24.95 13.7 56.7 28 -4.5 24
11:30 1016 30 845 24.95 14.1 57.4 28 -4 24.9
11:35 1015 29.97 845 24.95 14.2 57.5 27 -4.5 23.9
11:40 1015 29.97 844 24.92 14 57.3 25 -5.4 22.3
11:45 1015 29.97 844 24.92 14.6 58.3 25 -5 23
11:50 1015 29.97 844 24.92 15.8 60.4 24 -4.6 23.7
11:55 1015 29.97 844 24.92 16.2 61.2 24 -4.3 24.3
12:00 1015 29.97 844 24.92 15.7 60.2 25 -4 24.7
12:05 1015 29.97 844 24.92 15.8 60.4 24 -4.8 23.3
12:10 1015 29.97 844 24.92 16 60.7 24 -4.4 24
12:15 1015 29.97 844 24.92 15.9 60.7 25 -4.2 24.5
12:20 1015 29.97 844 24.92 15.8 60.4 25 -4 24.7
12:25 1015 29.97 844 24.92 15.9 60.7 25 -4 24.9
12:30 1015 29.97 844 24.92 15.9 60.6 24 -4.4 24.1
12:35 1015 29.97 844 24.92 16.2 61.1 24 -4.2 24.5
12:40 1015 29.97 844 24.92 16.1 61 24 -4.2 24.5
12:45 1014 29.94 844 24.92 16.4 61.5 23 -4.6 23.7
12:50 1014 29.94 844 24.92 16.4 61.6 24 -4.1 24.7
12:55 1014 29.94 843 24.89 16.3 61.3 24 -4.2 24.4
13:00 1014 29.94 843 24.89 15.9 60.6 26 -3.3 26
13:05 1014 29.94 843 24.89 15.3 59.5 28 -3.3 26.1
13:10 1014 29.94 843 24.89 15.4 59.7 28 -2.9 26.8
13:15 1014 29.94 843 24.89 15.2 59.3 29 -2.7 27.2
13:20 1014 29.94 843 24.89 14.9 58.7 29 -3.1 26.5
13:25 1014 29.94 843 24.89 14.9 58.8 28 -3.2 26.3
13:30 1014 29.94 843 24.89 14.9 58.9 29 -3.1 26.5
13:35 1014 29.94 843 24.89 14.8 58.7 28 -3.2 26.3
13:40 1014 29.94 843 24.89 15.1 59.1 29 -2.9 26.9
13:45 1014 29.94 843 24.89 15.1 59.3 29 -2.6 27.3
13:50 1014 29.94 843 24.89 15.2 59.3 29 -2.4 27.6
13:55 1014 29.94 843 24.89 15.1 59.2 29 -2.8 27
14:00 1014 29.94 843 24.89 15.1 59.1 29 -2.9 26.8
14:05 1014 29.94 843 24.89 15.1 59.1 29 -2.7 27.1
14:10 1014 29.94 843 24.89 15.2 59.4 29 -2.9 26.9
14:15 1013 29.91 843 24.89 15 59 29 -2.7 27.1
14:20 1013 29.91 843 24.89 14.7 58.4 30 -2.6 27.4
14:25 1013 29.91 843 24.89 14.4 57.9 31 -2.6 27.3
14:30 1013 29.91 843 24.89 14.5 58.1 30 -2.6 27.3
14:35 1013 29.91 843 24.89 15.2 59.3 22 -6.4 20.5
14:40 1013 29.91 842 24.86 16.2 61.2 20 -6.6 20.2
14:45 1013 29.91 842 24.86 16.5 61.7 20 -6.3 20.7
14:50 1013 29.91 842 24.86 16.5 61.7 20 -6.6 20.2
14:55 1013 29.91 842 24.86 16.5 61.8 20 -6.2 20.8
15:00 1013 29.91 842 24.86 16.5 61.6 21 -6.2 20.9
15:05 1013 29.91 842 24.86 16.4 61.6 21 -6.2 20.9
15:10 1013 29.91 842 24.86 16.4 61.5 21 -6 21.1
15:15 1013 29.91 842 24.86 16.3 61.4 21 -5.8 21.5
15:20 1013 29.91 842 24.86 16.3 61.4 20 -6.4 20.5
15:25 1013 29.91 842 24.86 16.4 61.6 21 -6.1 21
15:30 1013 29.91 842 24.86 16.5 61.7 21 -5.9 21.3
15:35 1013 29.91 842 24.86 16.5 61.6 21 -6 21.2
15:40 1013 29.91 842 24.86 16.4 61.5 21 -6 21.1
15:45 1013 29.91 842 24.86 16.4 61.6 21 -6.1 21.1
15:50 1013 29.91 842 24.86 16.6 61.8 21 -5.8 21.6
15:55 1013 29.91 842 24.86 16.4 61.6 21 -5.6 22
16:00 1013 29.91 842 24.86 16.2 61.1 23 -5.2 22.7
16:05 1013 29.91 842 24.86 16 60.7 23 -5.2 22.6
16:10 1013 29.91 842 24.86 15.8 60.4 23 -5.3 22.5
16:15 1013 29.91 842 24.86 15.7 60.2 23 -5.3 22.4
16:20 1013 29.91 842 24.86 15.5 59.9 23 -5.3 22.5
16:25 1013 29.91 842 24.86 15.4 59.6 24 -5.3 22.5
16:30 1013 29.91 842 24.86 15.3 59.5 24 -5.1 22.8
16:35 1013 29.91 842 24.86 15.2 59.3 24 -5.1 22.8
16:40 1013 29.91 842 24.86 15 58.9 25 -4.8 23.3
16:45 1013 29.91 842 24.86 14.8 58.6 25 -5 23.1
16:50 1013 29.91 842 24.86 14.7 58.5 25 -5 23.1
16:55 1013 29.91 842 24.86 14.6 58.2 26 -4.8 23.3
17:00 1013 29.91 842 24.86 14.3 57.7 26 -4.8 23.4
17:05 1013 29.91 842 24.86 14.1 57.3 27 -4.8 23.3
17:10 1013 29.91 842 24.86 14 57.1 27 -4.8 23.3
17:15 1013 29.91 842 24.86 13.8 56.8 27 -4.9 23.1
17:20 1013 29.91 842 24.86 13.6 56.5 27 -5.1 22.9
17:25 1013 29.91 842 24.86 13.5 56.4 27 -5.3 22.5
17:30 1013 29.91 842 24.86 13.5 56.4 26 -5.3 22.4
17:35 1013 29.91 842 24.86 13.4 56.2 27 -5 23
17:40 1013 29.91 842 24.86 13.2 55.7 28 -5 22.9
17:45 1013 29.91 842 24.86 13 55.5 28 -4.8 23.3
17:50 1013 29.91 842 24.86 12.5 54.5 30 -4.5 23.8
17:55 1013 29.91 842 24.86 12.1 53.8 30 -5 23
18:00 1013 29.91 842 24.86 12.1 53.8 29 -5.2 22.7
18:05 1013 29.91 842 24.86 12.2 54 30 -5 23.1
18:10 1013 29.91 842 24.86 12.4 54.3 27 -5.8 21.5
18:15 1013 29.91 842 24.86 13.1 55.5 27 -5.5 22
18:20 1013 29.91 842 24.86 13.1 55.6 27 -5.3 22.5
18:25 1013 29.91 842 24.86 13.2 55.8 27 -5.2 22.6
18:30 1013 29.91 842 24.86 13 55.4 28 -5.1 22.9
18:35 1013 29.91 842 24.86 12.9 55.2 28 -5.1 22.8
18:40 1013 29.91 842 24.86 12.9 55.3 29 -4.8 23.4
18:45 1013 29.91 842 24.86 13.2 55.7 27 -5.3 22.4
18:50 1013 29.91 843 24.89 13.1 55.5 29 -4.5 23.9
18:55 1013 29.91 843 24.89 13 55.4 28 -5 23.1
19:00 1013 29.91 843 24.89 13.2 55.7 29 -4.4 24.1
19:05 1013 29.91 842 24.86 13 55.3 29 -4.4 24.1
19:10 1013 29.91 842 24.86 12.8 55 30 -4.4 24.1
19:15 1013 29.91 842 24.86 13 55.4 29 -4.8 23.4
19:20 1013 29.91 842 24.86 13.4 56 28 -4.8 23.3
19:25 1013 29.91 842 24.86 13.5 56.2 27 -4.9 23.1
19:30 1013 29.91 842 24.86 13.6 56.4 27 -4.9 23.1
19:35 1013 29.91 843 24.89 13.6 56.4 28 -4.7 23.5
19:40 1013 29.91 843 24.89 13.4 56.2 28 -4.8 23.3
19:45 1013 29.91 843 24.89 13.5 56.2 28 -4.9 23.3
19:50 1013 29.91 843 24.89 13.5 56.2 28 -4.7 23.5
19:55 1013 29.91 843 24.89 13.2 55.8 28 -4.7 23.6
20:00 1013 29.91 843 24.89 13.2 55.7 28 -4.7 23.6
20:05 1013 29.91 843 24.89 13.2 55.7 28 -4.7 23.6
20:10 1013 29.91 843 24.89 13.1 55.6 29 -4.6 23.8
20:15 1013 29.91 843 24.89 12.9 55.2 29 -4.6 23.7
20:20 1013 29.91 843 24.89 12.6 54.8 30 -4.4 24.1
20:25 1013 29.91 843 24.89 12.3 54.1 30 -4.6 23.7
20:30 1013 29.91 843 24.89 12.1 53.8 31 -4.5 23.9
20:35 1013 29.91 843 24.89 12.1 53.8 30 -4.7 23.6
20:40 1013 29.91 843 24.89 12.3 54.1 30 -4.6 23.7
20:45 1014 29.94 843 24.89 12.4 54.3 30 -4.4 24
20:50 1014 29.94 843 24.89 12.4 54.4 30 -4.6 23.7
20:55 1014 29.94 843 24.89 12.5 54.4 31 -4.2 24.5
21:00 1014 29.94 843 24.89 12 53.7 31 -4.4 24.1
21:05 1014 29.94 843 24.89 11.8 53.2 31 -4.9 23.1
21:10 1014 29.94 843 24.89 12.4 54.3 31 -4.4 24.1
21:15 1014 29.94 843 24.89 11.9 53.3 33 -3.8 25.1
21:20 1013 29.91 843 24.89 11.1 52 36 -3.3 26
21:25 1013 29.91 843 24.89 10.5 50.8 38 -3.3 26.1
21:30 1013 29.91 843 24.89 10.2 50.4 35 -4.4 24.1
21:35 1013 29.91 843 24.89 10.9 51.6 35 -3.8 25.1
21:40 1013 29.91 843 24.89 11 51.8 35 -4 24.8
21:45 1013 29.91 842 24.86 11.4 52.6 33 -4.2 24.5
21:50 1013 29.91 842 24.86 11.8 53.2 33 -4 24.8
21:55 1013 29.91 842 24.86 11.7 53 33 -4 24.8
22:00 1013 29.91 842 24.86 11.5 52.6 34 -4 24.8
22:05 1013 29.91 842 24.86 11.3 52.3 33 -4.2 24.4
22:10 1013 29.91 842 24.86 11.3 52.4 34 -4.1 24.6
22:15 1013 29.91 842 24.86 11.1 52 34 -4 24.7
22:20 1013 29.91 842 24.86 11 51.9 34 -4.1 24.7
22:25 1013 29.91 842 24.86 10.8 51.4 36 -3.8 25.1
22:30 1013 29.91 842 24.86 10.1 50.2 39 -3.1 26.3
22:35 1013 29.91 842 24.86 8.7 47.7 44 -2.8 27
22:40 1013 29.91 842 24.86 8 46.3 44 -3.4 25.8
22:45 1013 29.91 842 24.86 7.8 46 47 -2.9 26.7
22:50 1013 29.91 842 24.86 7.5 45.4 46 -3.2 26.2
22:55 1013 29.91 842 24.86 7.5 45.5 46 -3.3 26.1
23:00 1013 29.91 842 24.86 8.3 47 41 -4.1 24.7
23:05 1013 29.91 842 24.86 8.9 48.1 41 -3.7 25.3
23:10 1013 29.91 842 24.86 8.8 47.8 42 -3.4 25.9
23:15 1013 29.91 842 24.86 8.3 47 42 -3.8 25.1
23:20 1013 29.91 842 24.86 8.6 47.5 42 -3.7 25.4
23:25 1013 29.91 842 24.86 8.6 47.6 42 -3.6 25.5
23:30 1013 29.91 842 24.86 8.4 47.1 42 -3.8 25.1
23:35 1013 29.91 842 24.86 9.1 48.4 37 -4.6 23.6
23:40 1013 29.91 842 24.86 10.1 50.2 35 -4.7 23.5
23:45 1013 29.91 842 24.86 10.3 50.5 36 -4 24.8
23:50 1013 29.91 843 24.89 9.9 49.8 38 -3.9 25.1
23:55 1013 29.91 843 24.89 9.4 48.9 40 -3.4 26
24:00 1013 29.91 842 24.86 8.8 47.8 42 -3.4 25.9